Terminal Aerodrome Forecast
Issued by NWS

Home | Current Version | Previous Version | Text Only | Print | Product List | Glossary On
Versions: 1 2 3 4 5 6 7 8 9 10 11 12 13 14 15 16 17 18 19 20 21 22 23 24 25 26 27 28 29 30 31 32 33 34 35 36 37 38 39 40 41 42 43 44 45 46 47 48 49 50
639
FTUS45 KVEF 250845 AAB
TAFLAS
TAF AMD
KLAS 250845Z 2509/2612 18006KT P6SM SCT250
     FM251400 VRB04KT P6SM SCT250
     FM251800 05006KT P6SM BKN250
     FM260500 25007KT P6SM SCT200=

USA.gov is the U.S. government's official web portal to all federal, state and local government web resources and services.